createdAt,value
2019-05-29T00:00:25.735Z,9.60
2019-05-29T00:02:54.050Z,9.60
2019-05-29T00:05:22.372Z,9.70
2019-05-29T00:07:50.647Z,9.70
2019-05-29T00:10:19.051Z,9.60
2019-05-29T00:12:47.391Z,9.60
2019-05-29T00:15:16.027Z,9.50
2019-05-29T00:17:44.289Z,9.50
2019-05-29T00:20:12.535Z,9.50
2019-05-29T00:22:40.813Z,9.50
2019-05-29T00:25:09.061Z,9.40
2019-05-29T00:27:37.308Z,9.60
2019-05-29T00:30:06.915Z,9.50
2019-05-29T00:32:35.756Z,9.50
2019-05-29T00:35:08.090Z,9.50
2019-05-29T00:37:36.828Z,9.40
2019-05-29T00:40:06.694Z,9.40
2019-05-29T00:42:35.184Z,9.30
2019-05-29T00:45:07.311Z,9.30
2019-05-29T00:47:35.940Z,9.40
2019-05-29T00:50:06.233Z,9.40
2019-05-29T00:52:34.496Z,9.40
2019-05-29T00:55:03.096Z,9.30
2019-05-29T00:57:31.352Z,9.40
2019-05-29T00:59:59.613Z,9.30
2019-05-29T01:02:27.868Z,9.30
2019-05-29T01:04:56.114Z,9.20
2019-05-29T01:07:24.454Z,9.20
2019-05-29T01:09:52.707Z,9.20
2019-05-29T01:12:21.324Z,9.20
2019-05-29T01:14:50.677Z,9.20
2019-05-29T01:17:19.814Z,9.20
2019-05-29T01:19:48.284Z,9.20
2019-05-29T01:22:16.552Z,9.20
2019-05-29T01:24:44.808Z,9.20
2019-05-29T01:27:13.069Z,9.20
2019-05-29T01:29:41.695Z,9.20
2019-05-29T01:32:10.044Z,9.10
2019-05-29T01:34:38.296Z,9.10
2019-05-29T01:37:06.567Z,9.10
2019-05-29T01:39:34.858Z,9.00
2019-05-29T01:42:03.105Z,9.10
2019-05-29T01:44:31.440Z,9.00
2019-05-29T01:46:59.686Z,9.00
2019-05-29T01:49:28.184Z,9.00
2019-05-29T01:51:56.469Z,9.10
2019-05-29T01:54:24.715Z,9.10
2019-05-29T01:56:52.969Z,9.00
2019-05-29T01:59:21.886Z,9.00
2019-05-29T02:01:50.371Z,9.00
2019-05-29T02:04:19.759Z,8.90
2019-05-29T02:06:48.384Z,8.80
2019-05-29T02:09:17.915Z,8.90
2019-05-29T02:11:46.294Z,8.80
2019-05-29T02:14:14.555Z,8.80
2019-05-29T02:16:42.898Z,8.80
2019-05-29T02:19:11.237Z,8.80
2019-05-29T02:21:39.540Z,8.70
2019-05-29T02:24:07.791Z,8.70
2019-05-29T02:26:36.052Z,8.70
2019-05-29T02:29:04.316Z,8.70
2019-05-29T02:31:32.573Z,8.70
2019-05-29T02:34:00.826Z,8.70
2019-05-29T02:36:29.359Z,8.60
2019-05-29T02:38:57.609Z,8.50
2019-05-29T02:41:27.939Z,8.50
2019-05-29T02:43:55.953Z,8.50
2019-05-29T02:46:25.911Z,8.50
2019-05-29T02:48:54.284Z,8.50
2019-05-29T02:51:24.044Z,8.50
2019-05-29T02:53:52.544Z,8.50
2019-05-29T02:56:22.393Z,8.50
2019-05-29T02:58:50.948Z,8.40
2019-05-29T03:01:19.192Z,8.50
2019-05-29T03:03:47.456Z,8.50
2019-05-29T03:06:15.736Z,8.50
2019-05-29T03:08:43.997Z,8.40
2019-05-29T03:11:12.244Z,8.40
2019-05-29T03:13:40.530Z,8.40
2019-05-29T03:16:12.066Z,8.30
2019-05-29T03:18:38.825Z,8.40
2019-05-29T03:21:07.091Z,8.30
2019-05-29T03:23:36.133Z,8.40
2019-05-29T03:26:05.054Z,8.40
2019-05-29T03:28:35.034Z,8.40
2019-05-29T03:31:03.315Z,8.40
2019-05-29T03:33:39.249Z,8.40
2019-05-29T03:36:02.497Z,8.40
2019-05-29T03:38:32.488Z,8.40
2019-05-29T03:41:00.790Z,8.50
2019-05-29T03:43:30.886Z,8.50
2019-05-29T03:45:59.041Z,8.50
2019-05-29T03:48:27.893Z,8.50
2019-05-29T03:50:56.523Z,8.60
2019-05-29T03:53:24.788Z,8.60
2019-05-29T03:55:53.123Z,8.60
2019-05-29T03:58:21.459Z,8.60
2019-05-29T04:00:49.942Z,8.50
2019-05-29T04:03:18.252Z,8.50
2019-05-29T04:05:46.561Z,8.50
2019-05-29T04:08:14.821Z,8.50
2019-05-29T04:10:43.080Z,8.50
2019-05-29T04:13:11.355Z,8.50
2019-05-29T04:15:39.605Z,8.60
2019-05-29T04:18:07.862Z,8.60
2019-05-29T04:20:38.431Z,8.60
2019-05-29T04:23:07.651Z,8.60
2019-05-29T04:25:40.541Z,8.70
2019-05-29T04:28:07.996Z,8.70
2019-05-29T04:30:36.564Z,8.70
2019-05-29T04:33:05.448Z,8.80
2019-05-29T04:35:34.604Z,8.80
2019-05-29T04:38:03.043Z,8.80
2019-05-29T04:40:32.760Z,8.80
2019-05-29T04:43:01.462Z,8.70
2019-05-29T04:45:30.886Z,8.70
2019-05-29T04:47:59.417Z,8.70
2019-05-29T04:50:29.118Z,8.80
2019-05-29T04:52:58.041Z,8.80
2019-05-29T04:55:26.399Z,8.80
2019-05-29T04:57:54.691Z,8.80
2019-05-29T05:00:23.015Z,8.90
2019-05-29T05:02:51.263Z,9.00
2019-05-29T05:05:19.795Z,9.10
2019-05-29T05:07:48.268Z,9.30
2019-05-29T05:10:19.779Z,9.20
2019-05-29T05:12:48.084Z,9.30
2019-05-29T05:15:16.474Z,9.50
2019-05-29T05:17:44.734Z,9.50
2019-05-29T05:20:12.996Z,9.50
2019-05-29T05:22:41.317Z,9.70
2019-05-29T05:25:09.673Z,9.50
2019-05-29T05:27:38.422Z,9.70
2019-05-29T05:30:08.985Z,9.70
2019-05-29T05:32:38.733Z,9.80
2019-05-29T05:35:07.524Z,9.80
2019-05-29T05:37:36.827Z,10.00
2019-05-29T05:40:06.812Z,10.00
2019-05-29T05:42:35.148Z,9.90
2019-05-29T05:45:04.839Z,9.90
2019-05-29T05:47:44.974Z,10.00
2019-05-29T05:50:03.689Z,10.10
2019-05-29T05:52:33.664Z,10.10
2019-05-29T05:55:01.931Z,10.20
2019-05-29T05:57:31.401Z,10.30
2019-05-29T05:59:59.911Z,10.40
2019-05-29T06:02:28.165Z,10.40
2019-05-29T06:04:56.431Z,10.40
2019-05-29T06:07:24.688Z,10.50
2019-05-29T06:09:53.282Z,10.60
2019-05-29T06:12:21.556Z,10.60
2019-05-29T06:14:49.818Z,10.60
2019-05-29T06:17:21.663Z,10.60
2019-05-29T06:19:48.212Z,10.70
2019-05-29T06:22:16.548Z,10.80
2019-05-29T06:24:44.807Z,10.80
2019-05-29T06:27:13.152Z,10.90
2019-05-29T06:29:41.408Z,11.00
2019-05-29T06:32:09.945Z,11.10
2019-05-29T06:34:39.515Z,11.10
2019-05-29T06:37:08.032Z,11.10
2019-05-29T06:39:37.653Z,11.10
2019-05-29T06:42:06.052Z,11.20
2019-05-29T06:44:34.836Z,11.20
2019-05-29T06:47:04.300Z,11.30
2019-05-29T06:49:33.827Z,11.30
2019-05-29T06:52:02.292Z,11.40
2019-05-29T06:54:30.552Z,11.50
2019-05-29T06:56:58.824Z,11.60
2019-05-29T06:59:27.077Z,11.60
2019-05-29T07:01:55.346Z,11.80
2019-05-29T07:04:23.616Z,11.80
2019-05-29T07:06:51.868Z,11.90
2019-05-29T07:09:20.122Z,12.00
2019-05-29T07:11:48.403Z,12.10
2019-05-29T07:14:16.671Z,12.10
2019-05-29T07:16:55.103Z,12.30
2019-05-29T07:19:47.603Z,12.40
2019-05-29T07:21:45.068Z,12.40
2019-05-29T07:24:13.359Z,12.50
2019-05-29T07:26:43.049Z,12.70
2019-05-29T07:29:11.602Z,12.70
2019-05-29T07:31:40.917Z,13.00
2019-05-29T07:34:09.475Z,12.90
2019-05-29T07:36:37.973Z,12.90
2019-05-29T07:39:07.401Z,13.00
2019-05-29T07:41:35.673Z,13.10
2019-05-29T07:44:04.002Z,13.30
2019-05-29T07:46:32.553Z,13.40
2019-05-29T07:49:00.825Z,13.30
2019-05-29T07:51:29.077Z,13.30
2019-05-29T07:53:57.332Z,13.20
2019-05-29T07:56:25.604Z,13.40
2019-05-29T07:59:02.489Z,13.40
2019-05-29T08:01:23.853Z,13.30
2019-05-29T08:03:52.413Z,13.50
2019-05-29T08:06:20.676Z,13.60
2019-05-29T08:08:49.569Z,13.90
2019-05-29T08:11:18.173Z,13.70
2019-05-29T08:13:47.683Z,13.90
2019-05-29T08:16:16.128Z,13.90
2019-05-29T08:18:47.276Z,14.10
2019-05-29T08:21:14.456Z,14.40
2019-05-29T08:23:42.711Z,14.10
2019-05-29T08:26:10.998Z,14.10
2019-05-29T08:28:40.431Z,14.30
2019-05-29T08:31:08.856Z,14.30
2019-05-29T08:33:37.137Z,14.30
2019-05-29T08:36:05.488Z,14.40
2019-05-29T08:38:33.739Z,14.50
2019-05-29T08:41:02.012Z,14.50
2019-05-29T08:43:30.273Z,14.70
2019-05-29T08:45:58.527Z,14.90
2019-05-29T08:48:32.442Z,14.60
2019-05-29T08:51:00.701Z,14.80
2019-05-29T08:53:28.964Z,15.10
2019-05-29T08:55:57.592Z,15.10
2019-05-29T08:58:25.957Z,15.40
2019-05-29T09:00:55.372Z,15.40
2019-05-29T09:03:23.964Z,15.30
2019-05-29T09:06:07.928Z,15.10
2019-05-29T09:08:22.225Z,15.10
2019-05-29T09:10:51.856Z,15.00
2019-05-29T09:13:20.500Z,15.40
2019-05-29T09:15:48.889Z,15.30
2019-05-29T09:18:17.166Z,15.60
2019-05-29T09:21:02.231Z,15.70
2019-05-29T09:23:16.761Z,15.60
2019-05-29T09:25:45.428Z,16.00
2019-05-29T09:28:14.682Z,16.10
2019-05-29T09:30:43.969Z,16.00
2019-05-29T09:33:15.241Z,16.10
2019-05-29T09:35:42.849Z,16.20
2019-05-29T09:38:11.103Z,15.90
2019-05-29T09:40:39.395Z,15.80
2019-05-29T09:43:07.652Z,15.90
2019-05-29T09:45:35.909Z,15.90
2019-05-29T09:48:04.437Z,16.00
2019-05-29T09:50:49.523Z,16.30
2019-05-29T09:53:04.152Z,16.80
2019-05-29T09:55:32.765Z,16.50
2019-05-29T09:58:01.023Z,16.80
2019-05-29T10:00:29.288Z,16.90
2019-05-29T10:02:57.563Z,16.60
2019-05-29T10:05:25.811Z,16.60
2019-05-29T10:07:55.065Z,16.70
2019-05-29T10:10:24.075Z,16.90
2019-05-29T10:12:53.482Z,17.00
2019-05-29T10:15:22.296Z,17.20
2019-05-29T10:17:50.579Z,17.00
2019-05-29T10:20:18.845Z,17.50
2019-05-29T10:22:47.164Z,17.30
2019-05-29T10:25:15.443Z,17.10
2019-05-29T10:27:43.722Z,17.20
2019-05-29T10:30:14.425Z,17.20
2019-05-29T10:32:44.360Z,17.60
2019-05-29T10:35:12.686Z,17.60
2019-05-29T10:37:40.946Z,17.60
2019-05-29T10:40:09.602Z,17.60
2019-05-29T10:42:38.529Z,17.90
2019-05-29T10:45:07.511Z,17.80
2019-05-29T10:47:35.796Z,18.00
2019-05-29T10:50:08.279Z,18.10
2019-05-29T10:52:36.672Z,18.40
2019-05-29T10:55:07.701Z,18.40
2019-05-29T10:57:36.037Z,18.50
2019-05-29T11:00:06.485Z,18.50
2019-05-29T11:02:34.875Z,18.60
2019-05-29T11:05:03.218Z,18.70
2019-05-29T11:07:31.484Z,18.10
2019-05-29T11:09:59.756Z,17.80
2019-05-29T11:12:28.385Z,17.90
2019-05-29T11:14:56.920Z,18.30
2019-05-29T11:17:25.616Z,18.50
2019-05-29T11:19:53.872Z,18.60
2019-05-29T11:22:26.321Z,18.20
2019-05-29T11:24:52.399Z,18.20
2019-05-29T11:27:20.855Z,18.40
2019-05-29T11:29:50.454Z,18.20
2019-05-29T11:32:18.861Z,18.40
2019-05-29T11:34:47.123Z,18.10
2019-05-29T11:37:15.452Z,17.70
2019-05-29T11:39:43.789Z,17.90
2019-05-29T11:42:26.379Z,18.00
2019-05-29T11:44:42.048Z,17.70
2019-05-29T11:47:10.316Z,18.10
2019-05-29T11:49:38.644Z,18.40
2019-05-29T11:52:23.561Z,19.00
2019-05-29T11:54:36.918Z,19.30
2019-05-29T11:57:05.251Z,19.30
2019-05-29T11:59:33.579Z,19.70
2019-05-29T12:02:03.329Z,19.90
2019-05-29T12:04:31.848Z,19.30
2019-05-29T12:07:01.458Z,19.10
2019-05-29T12:09:33.282Z,18.90
2019-05-29T12:12:00.371Z,19.10
2019-05-29T12:14:29.427Z,19.70
2019-05-29T12:16:58.240Z,20.30
2019-05-29T12:19:26.761Z,20.10
2019-05-29T12:21:56.450Z,19.50
2019-05-29T12:24:24.972Z,18.90
2019-05-29T12:26:54.368Z,18.70
2019-05-29T12:29:22.959Z,19.20
2019-05-29T12:31:52.824Z,19.70
2019-05-29T12:34:21.273Z,19.90
2019-05-29T12:36:49.536Z,20.30
2019-05-29T12:39:17.821Z,20.20
2019-05-29T12:41:46.274Z,19.40
2019-05-29T12:44:14.619Z,19.50
2019-05-29T12:46:42.892Z,19.60
2019-05-29T12:49:11.523Z,19.90
2019-05-29T12:51:39.838Z,19.50
2019-05-29T12:54:08.192Z,19.60
2019-05-29T12:56:36.451Z,19.90
2019-05-29T12:59:05.501Z,20.10
2019-05-29T13:01:33.844Z,20.20
2019-05-29T13:04:02.457Z,20.60
2019-05-29T13:06:30.843Z,20.20
2019-05-29T13:09:00.427Z,19.90
2019-05-29T13:11:29.144Z,20.00
2019-05-29T13:13:58.468Z,20.00
2019-05-29T13:16:26.808Z,20.10
2019-05-29T13:18:55.062Z,19.90
2019-05-29T13:21:23.330Z,20.00
2019-05-29T13:23:51.608Z,19.90
2019-05-29T13:26:20.040Z,19.90
2019-05-29T13:28:48.361Z,20.10
2019-05-29T13:31:16.650Z,20.60
2019-05-29T13:33:44.911Z,20.60
2019-05-29T13:36:13.252Z,20.40
2019-05-29T13:38:41.689Z,20.70
2019-05-29T13:41:09.940Z,21.00
2019-05-29T13:43:38.301Z,20.70
2019-05-29T13:46:06.580Z,20.40
2019-05-29T13:48:34.851Z,20.40
2019-05-29T13:51:03.702Z,20.80
2019-05-29T13:53:32.162Z,20.70
2019-05-29T13:56:01.761Z,20.60
2019-05-29T13:58:30.476Z,20.80
2019-05-29T14:01:00.635Z,21.00
2019-05-29T14:03:29.953Z,21.00
2019-05-29T14:05:58.693Z,20.90
2019-05-29T14:08:27.165Z,20.90
2019-05-29T14:10:55.500Z,20.90
2019-05-29T14:13:23.790Z,20.80
2019-05-29T14:15:52.068Z,20.40
2019-05-29T14:18:20.424Z,19.90
2019-05-29T14:20:49.339Z,19.80
2019-05-29T14:23:17.620Z,19.60
2019-05-29T14:25:45.900Z,19.60
2019-05-29T14:28:14.227Z,19.50
2019-05-29T14:30:42.825Z,19.60
2019-05-29T14:33:14.524Z,19.70
2019-05-29T14:35:41.111Z,19.90
2019-05-29T14:38:12.845Z,19.80
2019-05-29T14:40:39.371Z,19.70
2019-05-29T14:43:11.350Z,19.80
2019-05-29T14:45:37.637Z,19.70
2019-05-29T14:48:06.226Z,19.60
2019-05-29T14:50:34.748Z,19.50
2019-05-29T14:53:03.136Z,19.50
2019-05-29T14:55:32.975Z,19.50
2019-05-29T14:58:01.232Z,19.70
2019-05-29T15:00:29.512Z,19.60
2019-05-29T15:02:57.765Z,19.50
2019-05-29T15:05:26.030Z,19.50
2019-05-29T15:07:54.407Z,19.50
2019-05-29T15:10:27.438Z,19.50
2019-05-29T15:12:52.715Z,19.60
2019-05-29T15:15:21.077Z,19.70
2019-05-29T15:17:49.335Z,19.50
2019-05-29T15:20:19.240Z,19.60
2019-05-29T15:22:47.517Z,19.50
2019-05-29T15:25:23.755Z,19.50
2019-05-29T15:27:45.866Z,19.50
2019-05-29T15:30:19.967Z,19.50
2019-05-29T15:32:44.172Z,19.50
2019-05-29T15:35:17.616Z,19.50
2019-05-29T15:37:48.414Z,19.50
2019-05-29T15:40:17.126Z,19.40
2019-05-29T15:42:45.717Z,19.50
2019-05-29T15:45:14.178Z,19.50
2019-05-29T15:47:42.822Z,19.50
2019-05-29T15:50:11.735Z,19.50
2019-05-29T15:52:41.713Z,19.30
2019-05-29T15:55:27.658Z,19.30
2019-05-29T15:57:40.022Z,19.10
2019-05-29T16:00:09.149Z,19.00
2019-05-29T16:02:37.531Z,19.00
2019-05-29T16:05:06.167Z,19.00
2019-05-29T16:07:34.440Z,19.00
2019-05-29T16:10:02.823Z,19.00
2019-05-29T16:12:31.416Z,19.00
2019-05-29T16:15:01.122Z,19.00
2019-05-29T16:17:29.814Z,19.00
2019-05-29T16:19:59.704Z,19.00
2019-05-29T16:22:27.972Z,18.90
2019-05-29T16:24:56.219Z,18.90
2019-05-29T16:27:30.019Z,18.90
2019-05-29T16:29:54.960Z,18.90
2019-05-29T16:32:23.217Z,18.90
2019-05-29T16:34:51.464Z,18.90
2019-05-29T16:37:19.743Z,19.00
2019-05-29T16:39:48.009Z,18.90
2019-05-29T16:42:16.268Z,18.80
2019-05-29T16:44:44.632Z,18.70
2019-05-29T16:47:12.886Z,18.70
2019-05-29T16:49:41.517Z,18.80
2019-05-29T16:52:09.793Z,18.70
2019-05-29T16:54:38.055Z,18.70
2019-05-29T16:57:06.314Z,18.80
2019-05-29T16:59:34.687Z,18.70
2019-05-29T17:02:03.035Z,18.70
2019-05-29T17:04:31.364Z,18.70
2019-05-29T17:06:59.632Z,18.60
2019-05-29T17:09:27.980Z,18.70
2019-05-29T17:11:56.492Z,18.50
2019-05-29T17:14:25.104Z,18.60
2019-05-29T17:16:53.713Z,18.60
2019-05-29T17:19:23.082Z,18.60
2019-05-29T17:21:51.635Z,18.70
2019-05-29T17:24:20.918Z,18.70
2019-05-29T17:26:49.337Z,18.60
2019-05-29T17:29:18.671Z,18.50
2019-05-29T17:31:47.352Z,18.40
2019-05-29T17:34:16.812Z,18.30
2019-05-29T17:36:45.284Z,18.20
2019-05-29T17:39:15.161Z,18.10
2019-05-29T17:41:43.592Z,18.00
2019-05-29T17:44:11.867Z,17.80
2019-05-29T17:46:40.199Z,17.80
2019-05-29T17:49:08.457Z,17.90
2019-05-29T17:51:36.797Z,17.80
2019-05-29T17:54:05.108Z,17.70
2019-05-29T17:56:36.491Z,17.60
2019-05-29T17:59:03.518Z,17.70
2019-05-29T18:01:31.819Z,17.50
2019-05-29T18:04:00.126Z,17.50
2019-05-29T18:06:28.514Z,17.50
2019-05-29T18:08:56.841Z,17.50
2019-05-29T18:11:25.306Z,17.50
2019-05-29T18:13:53.784Z,17.40
2019-05-29T18:16:23.427Z,17.50
2019-05-29T18:18:52.079Z,17.40
2019-05-29T18:21:21.520Z,17.30
2019-05-29T18:23:53.285Z,17.20
2019-05-29T18:26:20.256Z,17.10
2019-05-29T18:28:50.266Z,17.10
2019-05-29T18:31:18.596Z,17.10
2019-05-29T18:33:46.964Z,17.10
2019-05-29T18:36:15.237Z,16.90
2019-05-29T18:38:43.506Z,16.90
2019-05-29T18:41:11.824Z,16.90
2019-05-29T18:43:40.112Z,16.80
2019-05-29T18:46:08.369Z,16.70
2019-05-29T18:48:36.624Z,16.80
2019-05-29T18:51:04.896Z,16.70
2019-05-29T18:53:33.193Z,16.70
2019-05-29T18:56:01.506Z,16.60
2019-05-29T18:58:30.688Z,16.60
2019-05-29T19:00:59.277Z,16.60
2019-05-29T19:03:27.607Z,16.50
2019-05-29T19:05:55.996Z,16.50
2019-05-29T19:08:24.526Z,16.50
2019-05-29T19:10:53.888Z,16.30
2019-05-29T19:13:22.189Z,16.30
2019-05-29T19:15:50.454Z,16.40
2019-05-29T19:18:18.703Z,16.30
2019-05-29T19:20:47.092Z,16.30
2019-05-29T19:23:15.339Z,16.20
2019-05-29T19:25:43.592Z,16.10
2019-05-29T19:28:11.875Z,16.10
2019-05-29T19:30:40.324Z,16.10
2019-05-29T19:33:08.649Z,16.10
2019-05-29T19:35:36.936Z,16.10
2019-05-29T19:38:05.208Z,16.00
2019-05-29T19:40:34.533Z,16.00
2019-05-29T19:43:03.110Z,16.00
2019-05-29T19:45:32.648Z,16.00
2019-05-29T19:48:01.091Z,16.00
2019-05-29T19:50:29.431Z,16.10
2019-05-29T19:52:57.730Z,15.90
2019-05-29T19:55:30.455Z,16.00
2019-05-29T19:57:57.380Z,15.90
2019-05-29T20:00:26.003Z,15.90
2019-05-29T20:02:54.528Z,15.90
2019-05-29T20:05:22.962Z,15.90
2019-05-29T20:07:51.227Z,15.90
2019-05-29T20:10:19.484Z,15.80
2019-05-29T20:12:47.770Z,15.80
2019-05-29T20:15:16.019Z,15.80
2019-05-29T20:17:44.280Z,15.70
2019-05-29T20:20:12.560Z,15.80
2019-05-29T20:22:40.890Z,15.70
2019-05-29T20:25:09.145Z,15.80
2019-05-29T20:27:38.563Z,15.70
2019-05-29T20:30:17.778Z,15.60
2019-05-29T20:32:47.009Z,15.60
2019-05-29T20:35:16.313Z,15.60
2019-05-29T20:37:45.607Z,15.50
2019-05-29T20:40:13.900Z,15.60
2019-05-29T20:42:42.546Z,15.50
2019-05-29T20:45:10.990Z,15.50
2019-05-29T20:47:39.921Z,15.40
2019-05-29T20:50:08.822Z,15.50
2019-05-29T20:52:37.427Z,15.50
2019-05-29T20:55:05.894Z,15.50
2019-05-29T20:57:34.218Z,15.60
2019-05-29T21:00:02.469Z,15.60
2019-05-29T21:02:31.940Z,15.60
2019-05-29T21:05:00.274Z,15.50
2019-05-29T21:07:28.528Z,15.60
2019-05-29T21:09:57.302Z,15.50
2019-05-29T21:12:25.551Z,15.50
2019-05-29T21:14:53.903Z,15.50
2019-05-29T21:17:22.182Z,15.60
2019-05-29T21:19:50.501Z,15.40
2019-05-29T21:22:18.765Z,15.40
2019-05-29T21:24:58.038Z,15.60
2019-05-29T21:27:17.143Z,15.50
2019-05-29T21:29:45.596Z,15.50
2019-05-29T21:32:14.145Z,15.60
2019-05-29T21:34:42.401Z,15.60
2019-05-29T21:37:10.735Z,15.50
2019-05-29T21:39:40.231Z,15.40
2019-05-29T21:42:08.645Z,15.50
2019-05-29T21:44:36.904Z,15.60
2019-05-29T21:47:05.272Z,15.60
2019-05-29T21:49:33.532Z,15.50
2019-05-29T21:52:01.862Z,15.50
2019-05-29T21:54:30.151Z,15.60
2019-05-29T21:56:58.420Z,15.50
2019-05-29T21:59:26.678Z,15.40
2019-05-29T22:01:54.951Z,15.50
2019-05-29T22:04:23.204Z,15.50
2019-05-29T22:06:51.457Z,15.40
2019-05-29T22:09:19.735Z,15.50
2019-05-29T22:11:47.997Z,15.50
2019-05-29T22:14:16.274Z,15.50
2019-05-29T22:16:44.613Z,15.50
2019-05-29T22:19:12.864Z,15.40
2019-05-29T22:21:41.116Z,15.50
2019-05-29T22:24:09.475Z,15.40
2019-05-29T22:26:37.749Z,15.50
2019-05-29T22:29:17.909Z,15.60
2019-05-29T22:31:36.078Z,15.50
2019-05-29T22:34:04.347Z,15.50
2019-05-29T22:36:32.667Z,15.50
2019-05-29T22:39:01.814Z,15.50
2019-05-29T22:41:30.380Z,15.50
2019-05-29T22:43:59.707Z,15.50
2019-05-29T22:46:28.309Z,15.50
2019-05-29T22:48:57.664Z,15.50
2019-05-29T22:51:26.376Z,15.50
2019-05-29T22:53:55.730Z,15.50
2019-05-29T22:56:24.104Z,15.50
2019-05-29T22:58:52.353Z,15.50
2019-05-29T23:01:20.626Z,15.50
2019-05-29T23:03:49.261Z,15.50
2019-05-29T23:06:17.524Z,15.50
2019-05-29T23:08:45.812Z,15.40
2019-05-29T23:11:14.069Z,15.40
2019-05-29T23:13:42.324Z,15.30
2019-05-29T23:16:10.608Z,15.30
2019-05-29T23:18:38.880Z,15.20
2019-05-29T23:21:07.133Z,15.20
2019-05-29T23:23:35.403Z,15.10
2019-05-29T23:26:03.669Z,15.10
2019-05-29T23:28:32.361Z,15.10
2019-05-29T23:31:01.096Z,15.00
2019-05-29T23:33:30.423Z,15.00
2019-05-29T23:35:59.082Z,15.00
2019-05-29T23:38:27.432Z,15.00
2019-05-29T23:40:55.691Z,15.00
2019-05-29T23:43:23.972Z,15.00
2019-05-29T23:45:53.278Z,14.90
2019-05-29T23:48:21.773Z,14.70
2019-05-29T23:50:50.120Z,14.50
2019-05-29T23:53:18.399Z,14.60
2019-05-29T23:55:46.680Z,14.70
2019-05-29T23:58:14.936Z,14.60
